sensor_id;sensor_type;location;lat;lon;timestamp;P1;durP1;ratioP1;P2;durP2;ratioP2
76073;SDS011;64776;42.636;24.358;2022-12-31T00:01:39;180.70;;;75.70;;
76073;SDS011;64776;42.636;24.358;2022-12-31T00:04:39;147.23;;;67.22;;
76073;SDS011;64776;42.636;24.358;2022-12-31T00:07:40;146.45;;;71.57;;
76073;SDS011;64776;42.636;24.358;2022-12-31T00:10:41;154.63;;;57.83;;
76073;SDS011;64776;42.636;24.358;2022-12-31T00:13:43;147.05;;;57.90;;
76073;SDS011;64776;42.636;24.358;2022-12-31T00:16:44;132.70;;;51.65;;
76073;SDS011;64776;42.636;24.358;2022-12-31T00:19:45;94.47;;;41.53;;
76073;SDS011;64776;42.636;24.358;2022-12-31T00:22:46;88.00;;;44.03;;
76073;SDS011;64776;42.636;24.358;2022-12-31T00:25:47;81.53;;;38.70;;
76073;SDS011;64776;42.636;24.358;2022-12-31T00:28:49;80.28;;;32.92;;
76073;SDS011;64776;42.636;24.358;2022-12-31T00:31:50;98.00;;;42.05;;
76073;SDS011;64776;42.636;24.358;2022-12-31T00:34:51;122.07;;;49.20;;
76073;SDS011;64776;42.636;24.358;2022-12-31T00:37:52;124.45;;;49.30;;
76073;SDS011;64776;42.636;24.358;2022-12-31T00:40:53;136.90;;;50.08;;
76073;SDS011;64776;42.636;24.358;2022-12-31T00:43:55;127.00;;;51.13;;
76073;SDS011;64776;42.636;24.358;2022-12-31T00:46:56;134.05;;;51.17;;
76073;SDS011;64776;42.636;24.358;2022-12-31T00:49:57;126.63;;;57.78;;
76073;SDS011;64776;42.636;24.358;2022-12-31T00:52:58;145.02;;;75.75;;
76073;SDS011;64776;42.636;24.358;2022-12-31T00:55:59;87.78;;;36.80;;
76073;SDS011;64776;42.636;24.358;2022-12-31T00:59:01;93.80;;;35.42;;
76073;SDS011;64776;42.636;24.358;2022-12-31T01:02:02;105.60;;;40.78;;
76073;SDS011;64776;42.636;24.358;2022-12-31T01:05:03;77.60;;;33.97;;
76073;SDS011;64776;42.636;24.358;2022-12-31T01:08:04;91.07;;;45.45;;
76073;SDS011;64776;42.636;24.358;2022-12-31T01:11:05;82.78;;;33.60;;
76073;SDS011;64776;42.636;24.358;2022-12-31T01:14:09;91.18;;;46.20;;
76073;SDS011;64776;42.636;24.358;2022-12-31T01:17:12;126.07;;;78.45;;
76073;SDS011;64776;42.636;24.358;2022-12-31T01:20:13;90.78;;;40.00;;
76073;SDS011;64776;42.636;24.358;2022-12-31T01:23:14;72.00;;;29.48;;
76073;SDS011;64776;42.636;24.358;2022-12-31T01:26:15;101.57;;;37.45;;
76073;SDS011;64776;42.636;24.358;2022-12-31T01:29:19;73.82;;;30.63;;
76073;SDS011;64776;42.636;24.358;2022-12-31T01:32:19;63.83;;;26.00;;
76073;SDS011;64776;42.636;24.358;2022-12-31T01:35:20;68.60;;;32.30;;
76073;SDS011;64776;42.636;24.358;2022-12-31T01:38:21;119.88;;;77.72;;
76073;SDS011;64776;42.636;24.358;2022-12-31T01:41:23;87.70;;;56.38;;
76073;SDS011;64776;42.636;24.358;2022-12-31T01:47:50;66.03;;;29.98;;
76073;SDS011;64776;42.636;24.358;2022-12-31T01:50:54;100.18;;;43.83;;
76073;SDS011;64776;42.636;24.358;2022-12-31T01:53:55;120.90;;;50.75;;
76073;SDS011;64776;42.636;24.358;2022-12-31T01:56:57;133.77;;;51.88;;
76073;SDS011;64776;42.636;24.358;2022-12-31T02:00:00;115.75;;;48.38;;
76073;SDS011;64776;42.636;24.358;2022-12-31T02:03:01;102.68;;;46.85;;
76073;SDS011;64776;42.636;24.358;2022-12-31T02:06:06;93.70;;;40.47;;
76073;SDS011;64776;42.636;24.358;2022-12-31T02:09:13;93.38;;;58.00;;
76073;SDS011;64776;42.636;24.358;2022-12-31T02:12:15;66.07;;;33.53;;
76073;SDS011;64776;42.636;24.358;2022-12-31T02:15:17;37.95;;;20.23;;
76073;SDS011;64776;42.636;24.358;2022-12-31T02:18:26;48.95;;;20.92;;
76073;SDS011;64776;42.636;24.358;2022-12-31T02:21:41;39.33;;;17.23;;
76073;SDS011;64776;42.636;24.358;2022-12-31T02:24:54;60.33;;;25.60;;
76073;SDS011;64776;42.636;24.358;2022-12-31T02:28:19;64.10;;;26.52;;
76073;SDS011;64776;42.636;24.358;2022-12-31T02:31:35;77.70;;;35.28;;
76073;SDS011;64776;42.636;24.358;2022-12-31T02:34:43;117.45;;;45.20;;
76073;SDS011;64776;42.636;24.358;2022-12-31T02:37:51;101.95;;;53.47;;
76073;SDS011;64776;42.636;24.358;2022-12-31T02:40:56;92.40;;;40.22;;
76073;SDS011;64776;42.636;24.358;2022-12-31T02:43:58;108.35;;;46.45;;
76073;SDS011;64776;42.636;24.358;2022-12-31T02:47:05;86.13;;;40.00;;
76073;SDS011;64776;42.636;24.358;2022-12-31T02:50:20;85.68;;;38.78;;
76073;SDS011;64776;42.636;24.358;2022-12-31T02:53:36;83.38;;;36.67;;
76073;SDS011;64776;42.636;24.358;2022-12-31T02:56:51;80.47;;;45.13;;
76073;SDS011;64776;42.636;24.358;2022-12-31T03:00:03;57.08;;;30.80;;
76073;SDS011;64776;42.636;24.358;2022-12-31T03:03:08;54.83;;;25.50;;
76073;SDS011;64776;42.636;24.358;2022-12-31T03:06:10;111.10;;;47.00;;
76073;SDS011;64776;42.636;24.358;2022-12-31T03:09:13;141.98;;;55.70;;
76073;SDS011;64776;42.636;24.358;2022-12-31T03:12:14;141.90;;;55.60;;
76073;SDS011;64776;42.636;24.358;2022-12-31T03:15:17;131.95;;;54.47;;
76073;SDS011;64776;42.636;24.358;2022-12-31T03:18:22;115.85;;;48.40;;
76073;SDS011;64776;42.636;24.358;2022-12-31T03:21:23;97.07;;;43.33;;
76073;SDS011;64776;42.636;24.358;2022-12-31T03:24:23;93.90;;;42.28;;
76073;SDS011;64776;42.636;24.358;2022-12-31T03:27:24;134.10;;;45.83;;
76073;SDS011;64776;42.636;24.358;2022-12-31T03:30:25;151.50;;;55.13;;
76073;SDS011;64776;42.636;24.358;2022-12-31T03:33:31;124.43;;;46.80;;
76073;SDS011;64776;42.636;24.358;2022-12-31T03:36:33;78.75;;;41.45;;
76073;SDS011;64776;42.636;24.358;2022-12-31T03:39:33;85.45;;;37.60;;
76073;SDS011;64776;42.636;24.358;2022-12-31T03:42:34;70.18;;;30.55;;
76073;SDS011;64776;42.636;24.358;2022-12-31T03:45:35;114.22;;;43.80;;
76073;SDS011;64776;42.636;24.358;2022-12-31T03:48:38;89.63;;;37.47;;
76073;SDS011;64776;42.636;24.358;2022-12-31T03:51:39;104.32;;;40.33;;
76073;SDS011;64776;42.636;24.358;2022-12-31T03:54:39;106.22;;;44.35;;
76073;SDS011;64776;42.636;24.358;2022-12-31T03:57:42;97.90;;;38.97;;
76073;SDS011;64776;42.636;24.358;2022-12-31T04:00:43;102.25;;;43.17;;
76073;SDS011;64776;42.636;24.358;2022-12-31T04:03:45;91.03;;;40.25;;
76073;SDS011;64776;42.636;24.358;2022-12-31T04:06:46;115.00;;;56.78;;
76073;SDS011;64776;42.636;24.358;2022-12-31T04:09:47;108.82;;;45.75;;
76073;SDS011;64776;42.636;24.358;2022-12-31T04:12:47;114.90;;;48.05;;
76073;SDS011;64776;42.636;24.358;2022-12-31T04:15:48;121.82;;;51.83;;
76073;SDS011;64776;42.636;24.358;2022-12-31T04:18:51;143.45;;;59.38;;
76073;SDS011;64776;42.636;24.358;2022-12-31T04:21:52;126.35;;;52.40;;
76073;SDS011;64776;42.636;24.358;2022-12-31T04:24:52;109.32;;;54.95;;
76073;SDS011;64776;42.636;24.358;2022-12-31T04:27:53;118.75;;;49.15;;
76073;SDS011;64776;42.636;24.358;2022-12-31T04:30:54;106.93;;;45.80;;
76073;SDS011;64776;42.636;24.358;2022-12-31T04:33:56;144.90;;;75.40;;
76073;SDS011;64776;42.636;24.358;2022-12-31T04:36:57;129.30;;;62.10;;
76073;SDS011;64776;42.636;24.358;2022-12-31T04:39:58;166.57;;;68.05;;
76073;SDS011;64776;42.636;24.358;2022-12-31T04:42:59;163.75;;;67.93;;
76073;SDS011;64776;42.636;24.358;2022-12-31T04:45:59;158.85;;;66.72;;
76073;SDS011;64776;42.636;24.358;2022-12-31T04:49:02;161.05;;;84.85;;
76073;SDS011;64776;42.636;24.358;2022-12-31T04:52:03;111.95;;;53.22;;
76073;SDS011;64776;42.636;24.358;2022-12-31T04:55:04;128.55;;;58.20;;
76073;SDS011;64776;42.636;24.358;2022-12-31T04:58:05;126.78;;;58.15;;
76073;SDS011;64776;42.636;24.358;2022-12-31T05:01:06;151.70;;;75.55;;
76073;SDS011;64776;42.636;24.358;2022-12-31T05:04:09;122.38;;;67.45;;
76073;SDS011;64776;42.636;24.358;2022-12-31T05:07:09;123.45;;;54.13;;
76073;SDS011;64776;42.636;24.358;2022-12-31T05:10:10;97.40;;;43.60;;
76073;SDS011;64776;42.636;24.358;2022-12-31T05:13:11;77.60;;;33.55;;
76073;SDS011;64776;42.636;24.358;2022-12-31T05:16:13;81.28;;;38.25;;
76073;SDS011;64776;42.636;24.358;2022-12-31T05:19:15;157.95;;;73.38;;
76073;SDS011;64776;42.636;24.358;2022-12-31T05:22:16;105.40;;;42.50;;
76073;SDS011;64776;42.636;24.358;2022-12-31T05:25:17;70.53;;;31.35;;
76073;SDS011;64776;42.636;24.358;2022-12-31T05:28:18;90.07;;;40.78;;
76073;SDS011;64776;42.636;24.358;2022-12-31T05:31:19;102.60;;;46.17;;
76073;SDS011;64776;42.636;24.358;2022-12-31T05:34:21;142.95;;;65.30;;
76073;SDS011;64776;42.636;24.358;2022-12-31T05:37:22;145.65;;;68.05;;
76073;SDS011;64776;42.636;24.358;2022-12-31T05:40:22;149.90;;;69.10;;
76073;SDS011;64776;42.636;24.358;2022-12-31T05:43:23;162.68;;;71.78;;
76073;SDS011;64776;42.636;24.358;2022-12-31T05:46:24;159.10;;;73.03;;
76073;SDS011;64776;42.636;24.358;2022-12-31T05:49:26;148.75;;;65.85;;
76073;SDS011;64776;42.636;24.358;2022-12-31T05:52:27;158.57;;;67.07;;
76073;SDS011;64776;42.636;24.358;2022-12-31T05:55:28;165.18;;;67.93;;
76073;SDS011;64776;42.636;24.358;2022-12-31T05:58:28;163.32;;;68.70;;
76073;SDS011;64776;42.636;24.358;2022-12-31T06:01:29;157.95;;;72.32;;
76073;SDS011;64776;42.636;24.358;2022-12-31T06:04:31;167.38;;;81.15;;
76073;SDS011;64776;42.636;24.358;2022-12-31T06:07:32;171.20;;;79.07;;
76073;SDS011;64776;42.636;24.358;2022-12-31T06:10:34;159.85;;;77.40;;
76073;SDS011;64776;42.636;24.358;2022-12-31T06:13:34;184.45;;;88.63;;
76073;SDS011;64776;42.636;24.358;2022-12-31T06:16:35;181.55;;;87.82;;
76073;SDS011;64776;42.636;24.358;2022-12-31T06:19:38;198.88;;;90.03;;
76073;SDS011;64776;42.636;24.358;2022-12-31T06:22:38;202.18;;;95.50;;
76073;SDS011;64776;42.636;24.358;2022-12-31T06:25:39;284.55;;;134.07;;
76073;SDS011;64776;42.636;24.358;2022-12-31T06:28:40;201.65;;;93.13;;
76073;SDS011;64776;42.636;24.358;2022-12-31T06:31:41;198.70;;;93.07;;
76073;SDS011;64776;42.636;24.358;2022-12-31T06:34:43;204.98;;;93.90;;
76073;SDS011;64776;42.636;24.358;2022-12-31T06:37:44;199.93;;;90.25;;
76073;SDS011;64776;42.636;24.358;2022-12-31T06:40:45;192.73;;;96.63;;
76073;SDS011;64776;42.636;24.358;2022-12-31T06:43:46;225.77;;;101.03;;
76073;SDS011;64776;42.636;24.358;2022-12-31T06:46:47;223.20;;;103.10;;
76073;SDS011;64776;42.636;24.358;2022-12-31T06:49:50;237.68;;;107.18;;
76073;SDS011;64776;42.636;24.358;2022-12-31T06:52:50;257.77;;;121.13;;
76073;SDS011;64776;42.636;24.358;2022-12-31T06:55:51;266.85;;;127.70;;
76073;SDS011;64776;42.636;24.358;2022-12-31T06:58:53;274.60;;;128.60;;
76073;SDS011;64776;42.636;24.358;2022-12-31T07:02:10;316.75;;;145.55;;
76073;SDS011;64776;42.636;24.358;2022-12-31T07:05:31;320.85;;;159.07;;
76073;SDS011;64776;42.636;24.358;2022-12-31T07:08:43;352.70;;;175.60;;
76073;SDS011;64776;42.636;24.358;2022-12-31T07:11:51;335.50;;;183.75;;
76073;SDS011;64776;42.636;24.358;2022-12-31T07:15:00;391.73;;;197.25;;
76073;SDS011;64776;42.636;24.358;2022-12-31T07:18:05;431.33;;;216.13;;
76073;SDS011;64776;42.636;24.358;2022-12-31T07:21:15;420.98;;;214.00;;
76073;SDS011;64776;42.636;24.358;2022-12-31T07:24:24;263.38;;;123.47;;
76073;SDS011;64776;42.636;24.358;2022-12-31T07:27:38;243.77;;;124.32;;
76073;SDS011;64776;42.636;24.358;2022-12-31T07:34:08;143.07;;;66.65;;
76073;SDS011;64776;42.636;24.358;2022-12-31T07:37:26;105.53;;;51.92;;
76073;SDS011;64776;42.636;24.358;2022-12-31T07:40:43;128.05;;;58.65;;
76073;SDS011;64776;42.636;24.358;2022-12-31T07:47:03;91.78;;;46.72;;
76073;SDS011;64776;42.636;24.358;2022-12-31T07:50:13;100.47;;;46.70;;
76073;SDS011;64776;42.636;24.358;2022-12-31T07:53:17;137.32;;;58.53;;
76073;SDS011;64776;42.636;24.358;2022-12-31T07:56:18;88.57;;;40.97;;
76073;SDS011;64776;42.636;24.358;2022-12-31T07:59:27;150.18;;;69.20;;
76073;SDS011;64776;42.636;24.358;2022-12-31T08:02:50;131.55;;;66.93;;
76073;SDS011;64776;42.636;24.358;2022-12-31T08:06:06;158.32;;;78.13;;
76073;SDS011;64776;42.636;24.358;2022-12-31T08:09:15;154.00;;;82.22;;
76073;SDS011;64776;42.636;24.358;2022-12-31T08:12:25;177.48;;;101.80;;
76073;SDS011;64776;42.636;24.358;2022-12-31T08:15:29;131.57;;;66.03;;
76073;SDS011;64776;42.636;24.358;2022-12-31T08:18:30;127.95;;;59.88;;
76073;SDS011;64776;42.636;24.358;2022-12-31T08:21:34;135.48;;;65.18;;
76073;SDS011;64776;42.636;24.358;2022-12-31T08:24:49;144.98;;;78.82;;
76073;SDS011;64776;42.636;24.358;2022-12-31T08:28:00;183.60;;;85.10;;
76073;SDS011;64776;42.636;24.358;2022-12-31T08:31:07;97.70;;;42.58;;
76073;SDS011;64776;42.636;24.358;2022-12-31T08:34:16;115.22;;;54.53;;
76073;SDS011;64776;42.636;24.358;2022-12-31T08:37:26;109.28;;;51.67;;
76073;SDS011;64776;42.636;24.358;2022-12-31T08:40:42;109.93;;;50.13;;
76073;SDS011;64776;42.636;24.358;2022-12-31T08:43:51;178.32;;;76.45;;
76073;SDS011;64776;42.636;24.358;2022-12-31T08:47:00;149.93;;;69.32;;
76073;SDS011;64776;42.636;24.358;2022-12-31T08:50:12;107.60;;;51.60;;
76073;SDS011;64776;42.636;24.358;2022-12-31T08:53:14;95.85;;;53.47;;
76073;SDS011;64776;42.636;24.358;2022-12-31T08:56:20;95.40;;;46.50;;
76073;SDS011;64776;42.636;24.358;2022-12-31T08:59:31;141.70;;;70.93;;
76073;SDS011;64776;42.636;24.358;2022-12-31T09:06:06;151.90;;;77.28;;
76073;SDS011;64776;42.636;24.358;2022-12-31T09:09:15;100.55;;;53.65;;
76073;SDS011;64776;42.636;24.358;2022-12-31T09:12:27;90.88;;;47.42;;
76073;SDS011;64776;42.636;24.358;2022-12-31T09:15:35;45.78;;;22.65;;
76073;SDS011;64776;42.636;24.358;2022-12-31T09:18:41;66.93;;;32.00;;
76073;SDS011;64776;42.636;24.358;2022-12-31T09:21:42;131.55;;;62.83;;
76073;SDS011;64776;42.636;24.358;2022-12-31T09:24:43;94.78;;;46.97;;
76073;SDS011;64776;42.636;24.358;2022-12-31T09:27:49;60.20;;;28.80;;
76073;SDS011;64776;42.636;24.358;2022-12-31T09:30:57;54.10;;;26.63;;
76073;SDS011;64776;42.636;24.358;2022-12-31T09:34:05;21.98;;;10.98;;
76073;SDS011;64776;42.636;24.358;2022-12-31T09:37:13;17.17;;;8.68;;
76073;SDS011;64776;42.636;24.358;2022-12-31T09:51:01;22.02;;;11.10;;
76073;SDS011;64776;42.636;24.358;2022-12-31T09:54:17;17.98;;;9.80;;
76073;SDS011;64776;42.636;24.358;2022-12-31T09:57:34;24.02;;;11.40;;
76073;SDS011;64776;42.636;24.358;2022-12-31T10:00:41;29.63;;;14.02;;
76073;SDS011;64776;42.636;24.358;2022-12-31T10:07:32;24.95;;;10.77;;
76073;SDS011;64776;42.636;24.358;2022-12-31T10:10:48;13.68;;;6.07;;
76073;SDS011;64776;42.636;24.358;2022-12-31T10:13:54;14.20;;;6.70;;
76073;SDS011;64776;42.636;24.358;2022-12-31T10:17:12;13.60;;;6.43;;
76073;SDS011;64776;42.636;24.358;2022-12-31T10:20:32;11.63;;;4.38;;
76073;SDS011;64776;42.636;24.358;2022-12-31T10:23:49;13.15;;;6.13;;
76073;SDS011;64776;42.636;24.358;2022-12-31T10:27:03;8.40;;;3.83;;
76073;SDS011;64776;42.636;24.358;2022-12-31T10:30:20;11.95;;;4.10;;
76073;SDS011;64776;42.636;24.358;2022-12-31T10:33:28;7.40;;;3.83;;
76073;SDS011;64776;42.636;24.358;2022-12-31T10:36:44;10.63;;;5.13;;
76073;SDS011;64776;42.636;24.358;2022-12-31T10:39:54;11.75;;;5.15;;
76073;SDS011;64776;42.636;24.358;2022-12-31T10:50:33;10.52;;;4.30;;
76073;SDS011;64776;42.636;24.358;2022-12-31T10:57:32;38.33;;;15.60;;
76073;SDS011;64776;42.636;24.358;2022-12-31T11:01:00;32.30;;;14.88;;
76073;SDS011;64776;42.636;24.358;2022-12-31T11:07:46;14.48;;;7.13;;
76073;SDS011;64776;42.636;24.358;2022-12-31T11:10:59;11.98;;;4.20;;
76073;SDS011;64776;42.636;24.358;2022-12-31T11:17:57;15.38;;;6.40;;
76073;SDS011;64776;42.636;24.358;2022-12-31T11:21:11;6.63;;;2.90;;
76073;SDS011;64776;42.636;24.358;2022-12-31T11:24:26;5.97;;;2.88;;
76073;SDS011;64776;42.636;24.358;2022-12-31T11:27:40;7.90;;;2.97;;
76073;SDS011;64776;42.636;24.358;2022-12-31T11:31:00;7.63;;;3.10;;
76073;SDS011;64776;42.636;24.358;2022-12-31T11:34:14;4.45;;;1.70;;
76073;SDS011;64776;42.636;24.358;2022-12-31T11:37:28;10.50;;;4.30;;
76073;SDS011;64776;42.636;24.358;2022-12-31T11:40:42;6.07;;;1.60;;
76073;SDS011;64776;42.636;24.358;2022-12-31T11:43:48;6.25;;;2.63;;
76073;SDS011;64776;42.636;24.358;2022-12-31T11:46:57;13.98;;;6.10;;
76073;SDS011;64776;42.636;24.358;2022-12-31T11:50:14;6.90;;;2.85;;
76073;SDS011;64776;42.636;24.358;2022-12-31T11:53:35;10.18;;;4.60;;
76073;SDS011;64776;42.636;24.358;2022-12-31T11:56:52;8.60;;;3.40;;
76073;SDS011;64776;42.636;24.358;2022-12-31T12:00:01;10.63;;;4.85;;
76073;SDS011;64776;42.636;24.358;2022-12-31T12:03:11;13.77;;;5.88;;
76073;SDS011;64776;42.636;24.358;2022-12-31T12:06:13;12.70;;;5.90;;
76073;SDS011;64776;42.636;24.358;2022-12-31T12:09:18;13.98;;;6.65;;
76073;SDS011;64776;42.636;24.358;2022-12-31T12:12:26;11.52;;;5.28;;
76073;SDS011;64776;42.636;24.358;2022-12-31T12:15:38;9.32;;;4.10;;
76073;SDS011;64776;42.636;24.358;2022-12-31T12:18:44;13.35;;;6.10;;
76073;SDS011;64776;42.636;24.358;2022-12-31T12:21:46;23.63;;;12.40;;
76073;SDS011;64776;42.636;24.358;2022-12-31T12:24:51;53.55;;;27.85;;
76073;SDS011;64776;42.636;24.358;2022-12-31T12:27:54;49.95;;;24.42;;
76073;SDS011;64776;42.636;24.358;2022-12-31T12:30:56;21.85;;;10.93;;
76073;SDS011;64776;42.636;24.358;2022-12-31T12:33:59;40.85;;;19.65;;
76073;SDS011;64776;42.636;24.358;2022-12-31T12:37:00;45.17;;;22.92;;
76073;SDS011;64776;42.636;24.358;2022-12-31T12:40:02;37.28;;;22.90;;
76073;SDS011;64776;42.636;24.358;2022-12-31T12:43:16;36.90;;;27.85;;
76073;SDS011;64776;42.636;24.358;2022-12-31T12:46:22;45.03;;;31.73;;
76073;SDS011;64776;42.636;24.358;2022-12-31T12:49:30;25.83;;;16.65;;
76073;SDS011;64776;42.636;24.358;2022-12-31T12:52:50;461.75;;;402.77;;
76073;SDS011;64776;42.636;24.358;2022-12-31T12:56:03;66.47;;;37.15;;
76073;SDS011;64776;42.636;24.358;2022-12-31T13:06:33;23.55;;;10.90;;
76073;SDS011;64776;42.636;24.358;2022-12-31T13:09:41;39.88;;;17.52;;
76073;SDS011;64776;42.636;24.358;2022-12-31T13:12:53;23.58;;;10.43;;
76073;SDS011;64776;42.636;24.358;2022-12-31T13:16:02;21.80;;;12.50;;
76073;SDS011;64776;42.636;24.358;2022-12-31T13:19:12;18.92;;;13.27;;
76073;SDS011;64776;42.636;24.358;2022-12-31T13:22:21;24.65;;;13.68;;
76073;SDS011;64776;42.636;24.358;2022-12-31T13:25:30;8.63;;;4.25;;
76073;SDS011;64776;42.636;24.358;2022-12-31T13:28:37;9.60;;;4.18;;
76073;SDS011;64776;42.636;24.358;2022-12-31T13:31:39;8.60;;;3.92;;
76073;SDS011;64776;42.636;24.358;2022-12-31T13:34:42;11.52;;;5.57;;
76073;SDS011;64776;42.636;24.358;2022-12-31T13:37:49;16.40;;;7.38;;
76073;SDS011;64776;42.636;24.358;2022-12-31T13:40:56;12.80;;;7.25;;
76073;SDS011;64776;42.636;24.358;2022-12-31T13:44:03;35.75;;;20.45;;
76073;SDS011;64776;42.636;24.358;2022-12-31T13:47:12;21.48;;;11.02;;
76073;SDS011;64776;42.636;24.358;2022-12-31T13:50:21;18.23;;;8.18;;
76073;SDS011;64776;42.636;24.358;2022-12-31T13:53:30;25.50;;;11.13;;
76073;SDS011;64776;42.636;24.358;2022-12-31T13:56:36;21.75;;;12.07;;
76073;SDS011;64776;42.636;24.358;2022-12-31T13:59:38;9.02;;;4.25;;
76073;SDS011;64776;42.636;24.358;2022-12-31T14:02:43;23.60;;;10.70;;
76073;SDS011;64776;42.636;24.358;2022-12-31T14:05:52;126.63;;;60.28;;
76073;SDS011;64776;42.636;24.358;2022-12-31T14:08:59;19.40;;;10.35;;
76073;SDS011;64776;42.636;24.358;2022-12-31T14:12:04;23.40;;;11.35;;
76073;SDS011;64776;42.636;24.358;2022-12-31T14:15:28;43.53;;;19.23;;
76073;SDS011;64776;42.636;24.358;2022-12-31T14:18:34;29.02;;;11.85;;
76073;SDS011;64776;42.636;24.358;2022-12-31T14:21:43;39.80;;;19.17;;
76073;SDS011;64776;42.636;24.358;2022-12-31T14:24:48;27.92;;;10.73;;
76073;SDS011;64776;42.636;24.358;2022-12-31T14:27:51;67.50;;;40.67;;
76073;SDS011;64776;42.636;24.358;2022-12-31T14:30:57;89.57;;;49.53;;
76073;SDS011;64776;42.636;24.358;2022-12-31T14:34:09;114.05;;;51.95;;
76073;SDS011;64776;42.636;24.358;2022-12-31T14:37:20;91.55;;;42.45;;
76073;SDS011;64776;42.636;24.358;2022-12-31T14:40:31;77.18;;;43.92;;
76073;SDS011;64776;42.636;24.358;2022-12-31T14:43:44;52.55;;;30.65;;
76073;SDS011;64776;42.636;24.358;2022-12-31T14:46:57;69.88;;;35.80;;
76073;SDS011;64776;42.636;24.358;2022-12-31T14:50:07;60.38;;;38.55;;
76073;SDS011;64776;42.636;24.358;2022-12-31T14:53:14;42.78;;;22.13;;
76073;SDS011;64776;42.636;24.358;2022-12-31T14:56:28;41.78;;;19.65;;
76073;SDS011;64776;42.636;24.358;2022-12-31T14:59:30;52.83;;;23.80;;
76073;SDS011;64776;42.636;24.358;2022-12-31T15:02:32;70.30;;;34.80;;
76073;SDS011;64776;42.636;24.358;2022-12-31T15:05:34;66.10;;;30.52;;
76073;SDS011;64776;42.636;24.358;2022-12-31T15:08:42;85.15;;;36.83;;
76073;SDS011;64776;42.636;24.358;2022-12-31T15:12:08;112.63;;;49.42;;
76073;SDS011;64776;42.636;24.358;2022-12-31T15:19:07;80.70;;;38.72;;
76073;SDS011;64776;42.636;24.358;2022-12-31T15:22:32;65.22;;;34.55;;
76073;SDS011;64776;42.636;24.358;2022-12-31T15:25:37;51.10;;;24.30;;
76073;SDS011;64776;42.636;24.358;2022-12-31T15:28:40;36.33;;;18.70;;
76073;SDS011;64776;42.636;24.358;2022-12-31T15:31:43;34.58;;;16.10;;
76073;SDS011;64776;42.636;24.358;2022-12-31T15:34:45;124.25;;;56.03;;
76073;SDS011;64776;42.636;24.358;2022-12-31T15:37:55;222.70;;;100.50;;
76073;SDS011;64776;42.636;24.358;2022-12-31T15:40:57;115.55;;;52.67;;
76073;SDS011;64776;42.636;24.358;2022-12-31T15:44:01;126.70;;;58.85;;
76073;SDS011;64776;42.636;24.358;2022-12-31T15:47:15;211.32;;;118.43;;
76073;SDS011;64776;42.636;24.358;2022-12-31T15:50:23;63.30;;;34.10;;
76073;SDS011;64776;42.636;24.358;2022-12-31T15:53:25;169.68;;;84.80;;
76073;SDS011;64776;42.636;24.358;2022-12-31T15:56:30;237.15;;;112.85;;
76073;SDS011;64776;42.636;24.358;2022-12-31T15:59:34;284.50;;;123.53;;
76073;SDS011;64776;42.636;24.358;2022-12-31T16:02:35;188.63;;;83.68;;
76073;SDS011;64776;42.636;24.358;2022-12-31T16:05:42;182.50;;;80.00;;
76073;SDS011;64776;42.636;24.358;2022-12-31T16:08:43;148.23;;;64.70;;
76073;SDS011;64776;42.636;24.358;2022-12-31T16:11:45;137.88;;;62.47;;
76073;SDS011;64776;42.636;24.358;2022-12-31T16:14:49;149.32;;;71.47;;
76073;SDS011;64776;42.636;24.358;2022-12-31T16:18:01;131.77;;;61.38;;
76073;SDS011;64776;42.636;24.358;2022-12-31T16:21:21;137.35;;;67.47;;
76073;SDS011;64776;42.636;24.358;2022-12-31T16:24:25;136.20;;;64.97;;
76073;SDS011;64776;42.636;24.358;2022-12-31T16:30:31;155.40;;;70.25;;
76073;SDS011;64776;42.636;24.358;2022-12-31T16:33:34;144.75;;;64.10;;
76073;SDS011;64776;42.636;24.358;2022-12-31T16:36:35;92.35;;;44.65;;
76073;SDS011;64776;42.636;24.358;2022-12-31T16:39:36;90.28;;;43.13;;
76073;SDS011;64776;42.636;24.358;2022-12-31T16:42:38;109.80;;;53.33;;
76073;SDS011;64776;42.636;24.358;2022-12-31T16:45:40;113.68;;;57.05;;
76073;SDS011;64776;42.636;24.358;2022-12-31T16:48:44;115.28;;;55.38;;
76073;SDS011;64776;42.636;24.358;2022-12-31T16:51:47;131.50;;;61.17;;
76073;SDS011;64776;42.636;24.358;2022-12-31T16:54:48;194.45;;;90.07;;
76073;SDS011;64776;42.636;24.358;2022-12-31T16:57:53;175.65;;;79.32;;
76073;SDS011;64776;42.636;24.358;2022-12-31T17:01:02;149.32;;;72.22;;
76073;SDS011;64776;42.636;24.358;2022-12-31T17:04:11;263.38;;;129.02;;
76073;SDS011;64776;42.636;24.358;2022-12-31T17:07:24;290.27;;;134.65;;
76073;SDS011;64776;42.636;24.358;2022-12-31T17:10:38;302.90;;;145.05;;
76073;SDS011;64776;42.636;24.358;2022-12-31T17:13:41;231.00;;;116.88;;
76073;SDS011;64776;42.636;24.358;2022-12-31T17:16:56;215.50;;;97.65;;
76073;SDS011;64776;42.636;24.358;2022-12-31T17:19:59;205.95;;;100.13;;
76073;SDS011;64776;42.636;24.358;2022-12-31T17:23:02;260.23;;;128.75;;
76073;SDS011;64776;42.636;24.358;2022-12-31T17:26:07;289.85;;;133.32;;
76073;SDS011;64776;42.636;24.358;2022-12-31T17:29:15;233.20;;;113.70;;
76073;SDS011;64776;42.636;24.358;2022-12-31T17:32:27;165.65;;;74.90;;
76073;SDS011;64776;42.636;24.358;2022-12-31T17:35:35;109.72;;;50.72;;
76073;SDS011;64776;42.636;24.358;2022-12-31T17:38:37;121.18;;;52.45;;
76073;SDS011;64776;42.636;24.358;2022-12-31T17:41:38;95.38;;;47.38;;
76073;SDS011;64776;42.636;24.358;2022-12-31T17:44:43;113.25;;;49.88;;
76073;SDS011;64776;42.636;24.358;2022-12-31T17:47:45;98.85;;;46.55;;
76073;SDS011;64776;42.636;24.358;2022-12-31T17:50:49;103.10;;;46.22;;
76073;SDS011;64776;42.636;24.358;2022-12-31T17:53:51;217.23;;;105.13;;
76073;SDS011;64776;42.636;24.358;2022-12-31T17:56:52;182.75;;;88.45;;
76073;SDS011;64776;42.636;24.358;2022-12-31T17:59:53;193.27;;;90.65;;
76073;SDS011;64776;42.636;24.358;2022-12-31T18:02:55;134.38;;;65.10;;
76073;SDS011;64776;42.636;24.358;2022-12-31T18:05:56;215.20;;;105.55;;
76073;SDS011;64776;42.636;24.358;2022-12-31T18:08:56;144.10;;;73.07;;
76073;SDS011;64776;42.636;24.358;2022-12-31T18:11:57;124.85;;;55.55;;
76073;SDS011;64776;42.636;24.358;2022-12-31T18:15:01;134.15;;;61.50;;
76073;SDS011;64776;42.636;24.358;2022-12-31T18:18:07;181.18;;;81.32;;
76073;SDS011;64776;42.636;24.358;2022-12-31T18:21:17;193.43;;;93.63;;
76073;SDS011;64776;42.636;24.358;2022-12-31T18:24:21;184.90;;;85.80;;
76073;SDS011;64776;42.636;24.358;2022-12-31T18:27:22;190.52;;;87.10;;
76073;SDS011;64776;42.636;24.358;2022-12-31T18:30:23;168.70;;;80.90;;
76073;SDS011;64776;42.636;24.358;2022-12-31T18:33:25;165.85;;;76.60;;
76073;SDS011;64776;42.636;24.358;2022-12-31T18:36:25;161.48;;;73.28;;
76073;SDS011;64776;42.636;24.358;2022-12-31T18:39:27;179.45;;;80.88;;
76073;SDS011;64776;42.636;24.358;2022-12-31T18:42:28;222.82;;;103.25;;
76073;SDS011;64776;42.636;24.358;2022-12-31T18:45:29;193.88;;;89.90;;